Time;durP1;ratioP1;P1;durP2;ratioP2;P2;SDS_P1;SDS_P2;PMS_P1;PMS_P2;Temp;Humidity;BMP_temperature;BMP_pressure;BME280_temperature;BME280_humidity;BME280_pressure;Samples;Min_cycle;Max_cycle;Signal;HPM_P1;HPM_P2
2020/12/30 00:00:35;;;;;;;24.52;10.48;;;;;;;7.97;70.77;99139.63;5038965;28;20056;-73
2020/12/30 00:03:01;;;;;;;21.40;9.23;;;;;;;7.96;70.40;99152.81;5038822;28;20369;-72
2020/12/30 00:05:26;;;;;;;23.30;8.80;;;;;;;7.98;70.39;99161.59;5038473;28;20064;-73
2020/12/30 00:07:51;;;;;;;14.75;6.93;;;;;;;8.07;70.06;99169.50;5038719;28;20405;-73
2020/12/30 00:10:19;;;;;;;14.55;6.32;;;;;;;8.10;69.38;99165.06;5038472;28;20037;-74
2020/12/30 00:12:45;;;;;;;12.57;6.35;;;;;;;8.14;69.71;99177.81;5038874;28;20096;-74
2020/12/30 00:15:11;;;;;;;12.77;5.90;;;;;;;8.25;68.67;99170.13;5037439;28;20037;-74
2020/12/30 00:17:41;;;;;;;14.45;5.43;;;;;;;8.31;68.97;99174.03;5037589;28;20469;-74
2020/12/30 00:20:09;;;;;;;13.15;4.97;;;;;;;8.39;68.83;99179.59;5038595;28;20029;-73
2020/12/30 00:22:35;;;;;;;13.52;5.22;;;;;;;8.45;68.70;99184.28;5038344;28;20050;-73
2020/12/30 00:25:00;;;;;;;10.52;4.80;;;;;;;8.49;68.15;99185.06;5038291;28;20348;-73
2020/12/30 00:27:26;;;;;;;14.10;5.38;;;;;;;8.52;68.53;99184.25;5038362;28;20056;-73
2020/12/30 00:29:51;;;;;;;11.93;5.93;;;;;;;8.56;67.59;99192.59;5048255;28;20041;-74
2020/12/30 00:32:16;;;;;;;10.73;5.00;;;;;;;8.57;68.32;99196.97;5042074;28;20428;-73
2020/12/30 00:34:42;;;;;;;9.45;5.20;;;;;;;8.55;67.90;99205.00;5038278;28;20104;-72
2020/12/30 00:37:08;;;;;;;11.50;4.97;;;;;;;8.56;67.92;99201.78;5037937;28;20360;-73
2020/12/30 00:39:33;;;;;;;10.57;5.35;;;;;;;8.61;67.85;99204.13;5038206;28;20029;-72
2020/12/30 00:41:59;;;;;;;10.38;4.70;;;;;;;8.67;67.96;99202.44;5032408;28;20306;-74
2020/12/30 00:44:24;;;;;;;10.20;4.75;;;;;;;8.71;68.45;99202.41;5036611;28;20112;-74
2020/12/30 00:46:59;;;;;;;10.70;4.75;;;;;;;8.80;67.96;99216.72;5037611;28;20026;-74
2020/12/30 00:49:25;;;;;;;15.90;4.70;;;;;;;8.80;68.50;99219.50;5034259;28;20033;-74
2020/12/30 00:51:56;;;;;;;9.27;4.35;;;;;;;8.79;68.59;99219.94;5037731;28;20167;-74
2020/12/30 00:54:21;;;;;;;7.50;3.72;;;;;;;8.81;69.41;99225.91;5037791;28;20325;-73
2020/12/30 00:56:48;;;;;;;9.85;3.97;;;;;;;8.84;68.97;99233.47;5037861;28;20052;-74
2020/12/30 00:59:14;;;;;;;5.90;3.50;;;;;;;8.90;68.83;99235.38;5036297;28;20025;-73
2020/12/30 01:01:40;;;;;;;10.55;3.85;;;;;;;8.90;69.28;99232.59;5037399;28;20116;-73
2020/12/30 01:04:05;;;;;;;7.63;3.95;;;;;;;8.97;69.88;99243.69;5036352;28;20374;-75
2020/12/30 01:06:31;;;;;;;10.77;3.20;;;;;;;9.07;70.10;99230.78;5037563;28;20035;-73
2020/12/30 01:08:56;;;;;;;7.63;3.13;;;;;;;9.05;71.05;99232.41;5037435;28;20025;-74
2020/12/30 01:11:29;;;;;;;6.80;2.90;;;;;;;9.02;71.61;99234.03;5037699;28;20054;-74
2020/12/30 01:13:56;;;;;;;10.95;2.78;;;;;;;8.99;72.88;99230.06;5037214;28;20044;-74
2020/12/30 01:16:22;;;;;;;8.50;3.10;;;;;;;8.95;74.26;99239.72;5036304;28;20025;-73
2020/12/30 01:18:48;;;;;;;12.35;2.97;;;;;;;8.90;74.93;99232.59;5037462;28;20413;-73
2020/12/30 01:21:14;;;;;;;15.55;2.83;;;;;;;8.93;75.12;99242.94;5029868;28;20359;-73
2020/12/30 01:23:40;;;;;;;6.95;2.50;;;;;;;8.91;75.90;99242.59;5024571;28;20030;-74
2020/12/30 01:26:05;;;;;;;9.02;2.38;;;;;;;8.88;76.88;99245.44;5034604;28;20333;-74
2020/12/30 01:28:31;;;;;;;4.78;2.42;;;;;;;8.88;77.08;99245.44;5030698;28;20018;-74
2020/12/30 01:30:56;;;;;;;6.05;1.95;;;;;;;8.87;77.11;99255.84;5043851;28;20044;-73
2020/12/30 01:33:21;;;;;;;5.47;2.00;;;;;;;8.86;78.02;99239.44;5043988;28;20040;-74
2020/12/30 01:35:47;;;;;;;2.35;1.85;;;;;;;8.83;78.03;99237.50;5031796;28;20028;-74
2020/12/30 01:38:12;;;;;;;7.60;1.85;;;;;;;8.83;78.30;99227.09;5035553;28;20018;-74
2020/12/30 01:40:37;;;;;;;7.53;2.10;;;;;;;8.80;78.70;99225.13;5037093;28;20025;-74
2020/12/30 01:43:03;;;;;;;7.63;2.30;;;;;;;8.81;78.71;99218.31;5036319;28;20037;-74
2020/12/30 01:45:28;;;;;;;4.75;2.28;;;;;;;8.79;78.39;99212.31;5036754;28;20021;-73
2020/12/30 01:47:54;;;;;;;7.07;2.10;;;;;;;8.80;79.21;99216.72;5036830;28;20029;-74
2020/12/30 01:50:19;;;;;;;8.60;3.47;;;;;;;8.81;79.66;99223.91;5035296;28;20459;-73
2020/12/30 01:52:44;;;;;;;6.05;1.85;;;;;;;8.75;79.79;99231.16;5035738;28;20018;-73
2020/12/30 01:55:11;;;;;;;4.85;1.80;;;;;;;8.72;80.11;99232.00;5036558;28;20021;-74
2020/12/30 01:57:37;;;;;;;6.90;1.80;;;;;;;8.74;79.56;99229.56;5034655;28;20401;-75
2020/12/30 02:00:08;;;;;;;7.25;1.70;;;;;;;8.74;79.85;99226.78;5025350;28;20025;-76
2020/12/30 02:02:36;;;;;;;6.55;2.55;;;;;;;8.74;80.04;99221.16;5024091;28;20105;-76
2020/12/30 02:05:06;;;;;;;6.35;2.17;;;;;;;8.76;79.52;99217.94;5030491;28;20038;-73
2020/12/30 02:07:32;;;;;;;3.20;1.70;;;;;;;8.75;80.67;99214.34;5036648;28;20021;-74
2020/12/30 02:09:59;;;;;;;10.00;2.30;;;;;;;8.78;80.17;99216.34;5036412;28;20026;-74
2020/12/30 02:12:27;;;;;;;8.40;2.40;;;;;;;8.76;80.83;99215.94;5035389;28;20018;-73
2020/12/30 02:14:52;;;;;;;3.58;1.77;;;;;;;8.72;80.26;99215.19;5035923;28;20025;-74
2020/12/30 02:17:18;;;;;;;3.60;1.95;;;;;;;8.69;81.15;99204.81;5034859;28;20013;-73
2020/12/30 02:19:45;;;;;;;4.95;2.15;;;;;;;8.66;80.59;99197.25;5036346;28;20463;-73
2020/12/30 02:22:13;;;;;;;7.53;2.00;;;;;;;8.61;81.39;99201.31;5035952;28;20099;-74
2020/12/30 02:24:39;;;;;;;11.93;3.17;;;;;;;8.59;81.92;99192.53;5035943;28;20100;-73
2020/12/30 02:27:05;;;;;;;11.32;3.60;;;;;;;8.59;81.20;99183.34;5036179;28;20112;-74
2020/12/30 02:29:32;;;;;;;8.00;3.33;;;;;;;8.58;81.78;99181.75;5035827;28;20028;-73
2020/12/30 02:31:58;;;;;;;11.43;3.75;;;;;;;8.53;82.44;99169.03;5047543;28;20017;-73
2020/12/30 02:34:24;;;;;;;6.32;3.20;;;;;;;8.50;81.83;99163.47;5053797;28;20021;-75
2020/12/30 02:36:50;;;;;;;6.47;2.78;;;;;;;8.47;82.26;99159.47;5036064;28;20013;-73
2020/12/30 02:39:16;;;;;;;6.85;2.80;;;;;;;8.42;82.61;99154.34;5035585;28;20087;-73
2020/12/30 02:41:42;;;;;;;7.63;3.10;;;;;;;8.39;82.39;99146.78;5036084;28;20029;-73
2020/12/30 02:44:07;;;;;;;5.85;2.60;;;;;;;8.38;82.78;99148.00;5030792;28;20470;-73
2020/12/30 02:46:33;;;;;;;6.55;2.95;;;;;;;8.36;83.14;99137.22;5031774;28;20036;-73
2020/12/30 02:48:59;;;;;;;5.30;3.20;;;;;;;8.33;83.10;99132.44;5029226;28;20025;-74
2020/12/30 02:51:25;;;;;;;4.75;3.42;;;;;;;8.32;83.04;99128.03;5031374;28;20112;-74
2020/12/30 02:53:50;;;;;;;6.40;2.83;;;;;;;8.29;83.94;99123.28;5035653;28;20017;-73
2020/12/30 02:56:19;;;;;;;11.05;4.45;;;;;;;8.27;83.80;99117.31;5035474;28;20029;-75
2020/12/30 02:58:47;;;;;;;11.25;3.90;;;;;;;8.25;84.17;99121.72;5025619;28;20405;-73
2020/12/30 03:01:13;;;;;;;10.57;3.78;;;;;;;8.24;84.02;99111.75;5035642;28;20044;-75
2020/12/30 03:03:39;;;;;;;7.35;3.10;;;;;;;8.23;84.72;99113.75;5035551;28;20101;-74
2020/12/30 03:06:05;;;;;;;4.38;2.75;;;;;;;8.23;84.22;99105.34;5035773;28;20478;-74
2020/12/30 03:08:31;;;;;;;9.27;3.45;;;;;;;8.22;84.23;99109.38;5035413;28;20057;-75
2020/12/30 03:10:56;;;;;;;4.10;2.20;;;;;;;8.19;84.85;99110.19;5035438;28;20017;-74
2020/12/30 03:13:22;;;;;;;4.45;2.30;;;;;;;8.18;84.72;99114.19;5034082;28;20028;-73
2020/12/30 03:15:47;;;;;;;5.78;2.30;;;;;;;8.17;84.93;99111.81;5035573;28;20013;-73
2020/12/30 03:18:13;;;;;;;5.22;2.85;;;;;;;8.16;85.27;99101.84;5035406;28;20033;-73
2020/12/30 03:20:38;;;;;;;5.80;2.22;;;;;;;8.14;85.77;99096.66;5034424;28;20033;-74
2020/12/30 03:23:04;;;;;;;7.32;2.70;;;;;;;8.14;86.09;99091.06;5046349;28;20063;-74
2020/12/30 03:25:29;;;;;;;9.73;3.45;;;;;;;8.15;86.48;99091.84;5037879;28;20014;-74
2020/12/30 03:27:56;;;;;;;8.18;2.30;;;;;;;8.15;86.28;99083.44;5036273;28;20049;-74
2020/12/30 03:30:22;;;;;;;5.05;2.50;;;;;;;8.12;86.14;99087.88;5039368;28;20405;-73
2020/12/30 03:32:47;;;;;;;7.35;4.07;;;;;;;8.10;86.18;99089.50;5042212;28;20027;-73
2020/12/30 03:35:13;;;;;;;5.78;2.88;;;;;;;8.07;86.88;99091.16;5039350;28;20109;-73
2020/12/30 03:37:38;;;;;;;6.20;2.25;;;;;;;8.05;87.21;99088.75;5039095;28;20039;-73
2020/12/30 03:40:03;;;;;;;4.75;2.42;;;;;;;8.08;87.62;99087.13;5038316;28;20654;-73
2020/12/30 03:42:29;;;;;;;6.95;2.92;;;;;;;8.11;87.73;99089.09;5039120;28;20029;-73
2020/12/30 03:44:54;;;;;;;7.75;2.55;;;;;;;8.09;87.50;99085.91;5039188;28;20522;-73
2020/12/30 03:47:19;;;;;;;5.82;2.50;;;;;;;8.09;87.43;99077.53;5039111;28;20321;-73
2020/12/30 03:49:45;;;;;;;6.40;2.40;;;;;;;8.12;87.90;99071.09;5038930;28;20133;-73
2020/12/30 03:52:10;;;;;;;5.40;2.75;;;;;;;8.13;87.27;99081.06;5039013;28;20022;-73
2020/12/30 03:54:35;;;;;;;11.57;3.65;;;;;;;8.13;87.37;99080.28;5039054;28;20310;-73
2020/12/30 03:57:00;;;;;;;8.52;4.15;;;;;;;8.09;87.08;99083.13;5037780;28;20295;-72
2020/12/30 03:59:26;;;;;;;8.13;3.30;;;;;;;8.07;87.36;99082.75;5038808;28;20349;-74
2020/12/30 04:01:51;;;;;;;8.18;3.35;;;;;;;8.07;87.65;99072.34;5037824;28;20021;-72
2020/12/30 04:04:16;;;;;;;10.27;4.38;;;;;;;8.07;87.60;99069.56;5038909;28;20029;-73
2020/12/30 04:06:42;;;;;;;11.52;3.90;;;;;;;8.07;87.14;99052.75;5038561;28;20033;-74
2020/12/30 04:09:08;;;;;;;9.90;4.03;;;;;;;8.09;87.65;99055.13;5038560;28;20029;-73
2020/12/30 04:11:33;;;;;;;9.80;4.18;;;;;;;8.07;87.50;99049.97;5022223;28;20026;-72
2020/12/30 04:13:58;;;;;;;12.07;4.55;;;;;;;8.07;87.27;99049.16;5033023;28;20017;-73
2020/12/30 04:16:24;;;;;;;9.70;4.15;;;;;;;8.06;87.25;99044.78;5037546;28;20013;-73
2020/12/30 04:18:50;;;;;;;10.40;4.95;;;;;;;8.05;87.22;99041.19;5037553;28;20361;-73
2020/12/30 04:21:24;;;;;;;6.78;3.97;;;;;;;8.04;87.03;99042.41;5038269;28;20049;-73
2020/12/30 04:23:50;;;;;;;14.50;4.75;;;;;;;8.05;86.83;99041.19;5028568;28;20025;-73
2020/12/30 04:26:16;;;;;;;9.75;4.32;;;;;;;8.04;87.08;99036.00;5037217;28;20030;-74
2020/12/30 04:28:42;;;;;;;11.57;5.15;;;;;;;8.07;87.76;99049.16;5037108;28;20021;-73
2020/12/30 04:31:11;;;;;;;13.95;5.55;;;;;;;8.09;87.28;99041.16;5037320;28;20075;-73
2020/12/30 04:33:37;;;;;;;7.57;4.78;;;;;;;8.09;87.53;99038.34;5042236;28;20083;-73
2020/12/30 04:36:04;;;;;;;7.82;5.22;;;;;;;8.09;87.13;99041.16;5038100;28;20017;-74
2020/12/30 04:38:31;;;;;;;11.85;5.90;;;;;;;8.06;86.98;99045.56;5036948;28;20021;-74
2020/12/30 04:41:13;;;;;;;12.80;5.70;;;;;;;8.08;86.86;99042.34;5037968;28;20056;-73
2020/12/30 04:43:40;;;;;;;;;;;;;;;8.11;87.02;99026.72;5038445;28;20029;-73
2020/12/30 04:46:05;;;;;;;15.02;5.47;;;;;;;8.06;86.59;99030.78;5036771;28;19956;-74
2020/12/30 04:48:34;;;;;;;10.15;5.38;;;;;;;8.05;87.20;99029.22;5038237;28;20064;-73
2020/12/30 04:51:03;;;;;;;13.77;6.30;;;;;;;8.05;86.93;99032.00;5038026;28;20029;-74
2020/12/30 04:53:30;;;;;;;13.45;6.68;;;;;;;7.99;87.19;99026.09;5037654;28;20049;-73
2020/12/30 04:55:59;;;;;;;13.80;5.70;;;;;;;7.98;87.27;99032.91;5038052;28;20025;-74
2020/12/30 04:58:30;;;;;;;9.60;5.63;;;;;;;7.94;87.24;99028.53;5037676;28;20025;-73
2020/12/30 05:00:57;;;;;;;10.30;4.75;;;;;;;7.90;87.50;99027.78;5037970;28;20109;-74
2020/12/30 05:03:31;;;;;;;9.18;4.57;;;;;;;7.88;87.83;99035.81;5037535;28;20032;-74
2020/12/30 05:06:00;;;;;;;7.00;4.35;;;;;;;7.86;87.83;99041.81;5037802;28;20017;-74
2020/12/30 05:08:26;;;;;;;9.93;5.30;;;;;;;7.84;88.17;99037.84;5037166;28;20040;-73
2020/12/30 05:10:52;;;;;;;13.23;6.03;;;;;;;7.83;88.12;99033.47;5037712;28;20107;-73
2020/12/30 05:13:19;;;;;;;11.93;5.93;;;;;;;7.83;88.48;99039.06;5037444;28;20057;-73
2020/12/30 05:15:44;;;;;;;11.88;7.25;;;;;;;7.83;88.31;99047.44;5036653;28;20423;-73
2020/12/30 05:18:10;;;;;;;10.52;5.30;;;;;;;7.83;88.72;99047.44;5037348;28;20160;-73
2020/12/30 05:20:35;;;;;;;7.82;4.82;;;;;;;7.83;89.06;99042.66;5037594;28;20405;-74
2020/12/30 05:23:06;;;;;;;9.43;4.65;;;;;;;7.89;89.09;99045.78;5037067;28;20429;-74
2020/12/30 05:25:43;;;;;;;8.73;5.63;;;;;;;7.91;89.41;99065.72;5037163;28;20020;-74
2020/12/30 05:28:10;;;;;;;10.40;6.13;;;;;;;7.90;89.33;99050.16;5037308;28;20111;-73
2020/12/30 05:30:36;;;;;;;9.90;6.00;;;;;;;7.91;88.74;99055.34;5037198;28;20021;-74
2020/12/30 05:33:02;;;;;;;9.82;5.53;;;;;;;7.91;88.59;99046.16;5041354;28;20044;-73
2020/12/30 05:35:28;;;;;;;11.18;5.88;;;;;;;7.91;89.00;99054.53;5061312;28;20111;-74
2020/12/30 05:37:55;;;;;;;10.07;5.78;;;;;;;7.91;88.80;99060.13;5035790;28;20057;-75
2020/12/30 05:40:25;;;;;;;9.07;6.32;;;;;;;7.91;88.92;99062.94;5037101;28;20075;-73
2020/12/30 05:42:52;;;;;;;15.50;5.80;;;;;;;7.93;89.60;99058.50;5036980;28;20464;-74
2020/12/30 05:45:23;;;;;;;21.02;11.52;;;;;;;7.91;88.79;99048.94;5035870;28;20026;-74
2020/12/30 05:47:50;;;;;;;19.05;10.85;;;;;;;7.90;88.94;99058.56;5034795;28;20021;-74
2020/12/30 05:50:25;;;;;;;15.10;8.65;;;;;;;7.91;89.34;99065.72;5035199;28;20025;-76
2020/12/30 05:52:53;;;;;;;12.38;8.32;;;;;;;7.89;89.02;99056.97;5036312;28;20033;-73
2020/12/30 05:55:26;;;;;;;10.77;6.80;;;;;;;7.90;89.58;99064.16;5035784;28;20018;-74
2020/12/30 05:57:52;;;;;;;13.73;7.07;;;;;;;7.88;89.27;99061.78;5035803;28;20116;-75
2020/12/30 06:00:17;;;;;;;11.55;7.20;;;;;;;7.87;89.23;99067.78;5035986;28;20097;-74
2020/12/30 06:02:44;;;;;;;15.00;8.10;;;;;;;7.86;88.86;99074.59;5036739;28;20049;-74
2020/12/30 06:05:24;;;;;;;14.55;7.35;;;;;;;7.84;89.30;99077.81;5036426;28;20056;-74
2020/12/30 06:07:53;;;;;;;22.77;13.63;;;;;;;7.86;89.53;99069.78;5035152;28;20321;-74
2020/12/30 06:10:23;;;;;;;16.10;10.35;;;;;;;7.86;89.95;99072.59;5036332;28;20037;-73
2020/12/30 06:12:51;;;;;;;11.70;8.35;;;;;;;7.86;89.94;99067.00;5035500;28;20057;-73
2020/12/30 06:15:21;;;;;;;14.13;7.45;;;;;;;7.83;89.84;99081.00;5036261;28;20032;-73
2020/12/30 06:18:00;;;;;;;20.50;14.00;;;;;;;7.80;89.57;99077.06;5036497;28;20049;-73
2020/12/30 06:20:26;;;;;;;24.88;14.23;;;;;;;7.81;90.14;99073.03;5035821;28;20025;-74
2020/12/30 06:22:56;;;;;;;9.77;6.75;;;;;;;7.83;89.84;99067.03;5036267;28;20049;-74
2020/12/30 06:25:23;;;;;;;9.02;6.65;;;;;;;7.84;90.05;99066.63;5036006;28;20025;-73
2020/12/30 06:27:50;;;;;;;11.30;6.35;;;;;;;7.86;89.90;99077.38;5035080;28;20416;-76
2020/12/30 06:30:16;;;;;;;32.63;22.67;;;;;;;7.86;90.13;99077.38;5036005;28;20060;-73
2020/12/30 06:32:42;;;;;;;38.45;19.20;;;;;;;7.86;90.25;99077.38;5038580;28;20444;-73
2020/12/30 06:35:08;;;;;;;30.58;15.68;;;;;;;7.83;90.08;99078.22;5047033;28;20053;-73
2020/12/30 06:37:35;;;;;;;39.10;16.92;;;;;;;7.80;90.31;99070.66;5035924;28;20049;-77
2020/12/30 06:40:17;;;;;;;27.08;13.68;;;;;;;7.81;90.23;99063.84;5036131;28;20029;-74
2020/12/30 06:42:42;;;;;;;;;;;;;;;7.82;90.40;99062.66;5035718;28;20417;-78
2020/12/30 06:45:08;;;;;;;29.02;18.23;;;;;;;7.82;90.46;99062.66;5035866;28;19916;-74
2020/12/30 06:47:59;;;;;;;103.10;53.58;;;;;;;7.84;90.58;99063.03;5035680;28;20076;-75
2020/12/30 06:50:24;;;;;;;103.50;68.68;;;;;;;7.87;90.57;99062.19;5029783;28;20060;-77
2020/12/30 06:52:50;;;;;;;31.63;20.85;;;;;;;7.89;90.89;99062.56;5035317;28;20052;-75
2020/12/30 06:55:15;;;;;;;27.73;17.70;;;;;;;7.88;90.70;99055.38;5035533;28;20053;-76
2020/12/30 06:57:41;;;;;;;25.63;19.60;;;;;;;7.88;90.15;99060.97;5035728;28;20040;-76
2020/12/30 07:00:29;;;;;;;47.05;33.30;;;;;;;7.88;90.45;99066.56;5035590;28;20021;-74
2020/12/30 07:03:16;;;;;;;40.28;25.40;;;;;;;7.87;90.18;99082.56;5035526;28;20026;-74
2020/12/30 07:05:43;;;;;;;13.63;9.98;;;;;;;7.83;90.81;99079.00;5029285;28;20026;-74
2020/12/30 07:08:09;;;;;;;11.70;7.72;;;;;;;7.88;90.55;99094.53;5035297;28;20033;-73
2020/12/30 07:10:45;;;;;;;18.50;10.15;;;;;;;7.88;90.90;99094.53;5035626;28;20029;-73
2020/12/30 07:13:26;;;;;;;14.98;10.48;;;;;;;7.86;90.87;99096.97;5035439;28;20447;-75
2020/12/30 07:16:19;;;;;;;39.45;23.48;;;;;;;7.84;90.84;99099.38;5029315;28;20017;-73
2020/12/30 07:18:55;;;;;;;46.53;25.52;;;;;;;7.83;90.79;99101.38;5030995;28;20044;-73
2020/12/30 07:21:20;;;;;;;31.70;19.60;;;;;;;7.86;91.39;99102.56;5034966;28;20065;-73
2020/12/30 07:23:46;;;;;;;19.15;14.27;;;;;;;7.87;91.49;99107.75;5035295;28;20017;-72
2020/12/30 07:26:20;;;;;;;20.98;14.20;;;;;;;7.87;91.33;99107.75;5035183;28;20376;-74
2020/12/30 07:28:47;;;;;;;23.73;16.83;;;;;;;7.87;91.21;99107.75;5035052;28;20105;-73
2020/12/30 07:31:13;;;;;;;21.77;16.02;;;;;;;7.89;91.36;99115.72;5035232;28;20116;-73
2020/12/30 07:33:39;;;;;;;21.85;16.25;;;;;;;7.88;91.90;99125.31;5036994;28;20022;-74
2020/12/30 07:36:06;;;;;;;19.90;14.07;;;;;;;7.89;91.41;99135.28;5022567;28;20014;-74
2020/12/30 07:38:33;;;;;;;23.70;14.80;;;;;;;7.95;91.66;99130.88;5035227;28;20025;-74
2020/12/30 07:41:07;;;;;;;31.95;19.33;;;;;;;7.97;91.67;99123.63;5034165;28;20022;-74
2020/12/30 07:43:46;;;;;;;31.55;19.95;;;;;;;8.01;91.36;99127.19;5032374;28;20144;-73
2020/12/30 07:46:21;;;;;;;34.78;22.75;;;;;;;8.04;91.70;99128.34;5030679;28;20101;-73
2020/12/30 07:48:47;;;;;;;25.75;18.63;;;;;;;8.06;91.03;99132.31;5034763;28;20028;-73
2020/12/30 07:51:13;;;;;;;29.67;18.35;;;;;;;8.11;91.16;99136.66;5034769;28;20022;-74
2020/12/30 07:53:39;;;;;;;23.98;14.70;;;;;;;8.12;91.46;99138.25;5034125;28;20017;-75
2020/12/30 07:56:04;;;;;;;24.35;16.60;;;;;;;8.13;91.13;99136.25;5034961;28;20033;-76
2020/12/30 07:58:30;;;;;;;20.23;14.05;;;;;;;8.16;91.46;99130.63;5034960;28;20380;-74
2020/12/30 08:00:56;;;;;;;22.80;14.27;;;;;;;8.19;90.90;99135.38;5035249;28;20045;-74
2020/12/30 08:03:22;;;;;;;23.35;12.38;;;;;;;8.21;91.31;99146.94;5034563;28;20325;-74
2020/12/30 08:05:49;;;;;;;28.10;17.05;;;;;;;8.22;91.29;99148.56;5034770;28;20040;-76
2020/12/30 08:08:18;;;;;;;26.08;16.13;;;;;;;8.23;90.65;99158.53;5034933;28;20104;-69
2020/12/30 08:10:48;;;;;;;29.02;14.88;;;;;;;8.25;91.40;99158.13;5034986;28;20025;-72
2020/12/30 08:13:15;;;;;;;23.30;14.75;;;;;;;8.26;91.49;99160.50;5035344;28;20534;-71
2020/12/30 08:15:52;;;;;;;22.75;14.02;;;;;;;8.25;90.89;99164.50;5024165;28;20013;-73
2020/12/30 08:18:18;;;;;;;21.40;13.15;;;;;;;8.23;91.38;99164.13;5038191;28;20486;-72
2020/12/30 08:20:44;;;;;;;21.15;13.55;;;;;;;8.26;91.32;99163.31;5038481;28;20165;-71
2020/12/30 08:23:09;;;;;;;27.20;17.15;;;;;;;8.28;91.13;99177.69;5038369;28;20049;-72
2020/12/30 08:25:34;;;;;;;25.88;16.08;;;;;;;8.26;91.53;99176.50;5036031;28;20048;-79
2020/12/30 08:28:03;;;;;;;23.15;14.77;;;;;;;8.24;91.31;99174.13;5029721;28;20025;-72
2020/12/30 08:30:32;;;;;;;21.35;11.48;;;;;;;8.27;91.69;99173.28;5034563;28;20611;-75
2020/12/30 08:33:04;;;;;;;36.50;16.40;;;;;;;8.29;91.26;99176.47;5033660;28;20025;-71
2020/12/30 08:35:38;;;;;;;34.50;15.90;;;;;;;8.31;91.28;99185.25;5029786;28;20065;-74
2020/12/30 08:38:20;;;;;;;37.17;18.58;;;;;;;8.33;90.92;99180.03;5029444;28;20120;-74
2020/12/30 08:40:54;;;;;;;42.22;17.25;;;;;;;8.36;90.90;99176.41;5031604;28;20100;-72
2020/12/30 08:43:35;;;;;;;35.08;17.67;;;;;;;8.41;91.22;99177.16;5026302;28;20022;-73
2020/12/30 08:46:31;;;;;;;24.60;15.52;;;;;;;8.48;92.18;99155.47;5024894;28;20044;-73
2020/12/30 08:48:58;;;;;;;25.60;16.73;;;;;;;8.54;91.85;99165.00;5011663;28;20413;-73
2020/12/30 08:51:29;;;;;;;21.73;14.30;;;;;;;8.64;91.57;99166.09;5031203;28;20079;-76
2020/12/30 08:53:55;;;;;;;16.45;11.50;;;;;;;8.75;92.01;99172.31;5037777;28;20025;-74
2020/12/30 08:56:21;;;;;;;18.13;11.77;;;;;;;8.84;91.26;99178.22;5032462;28;20017;-74
2020/12/30 08:58:54;;;;;;;21.92;11.27;;;;;;;8.90;90.95;99186.97;5029246;28;20029;-75
2020/12/30 09:01:21;;;;;;;19.65;10.63;;;;;;;8.96;90.06;99196.47;5028902;28;20021;-77
2020/12/30 09:03:47;;;;;;;18.40;10.48;;;;;;;9.00;89.45;99202.81;5027652;28;20421;-77
2020/12/30 09:06:24;;;;;;;18.13;10.50;;;;;;;9.02;89.51;99194.00;5031735;28;20090;-70
2020/12/30 09:08:49;;;;;;;18.52;10.73;;;;;;;9.03;89.45;99184.38;5028546;28;20030;-71
2020/12/30 09:11:18;;;;;;;17.48;9.20;;;;;;;9.05;88.92;99190.38;5031454;28;20024;-73
2020/12/30 09:13:43;;;;;;;23.15;12.35;;;;;;;9.07;88.70;99179.53;5030573;28;20022;-72
2020/12/30 09:16:10;;;;;;;18.25;10.02;;;;;;;9.09;89.20;99177.09;5028486;28;20086;-69
2020/12/30 09:18:36;;;;;;;15.25;10.43;;;;;;;9.11;89.46;99177.47;5027135;28;20029;-71
2020/12/30 09:21:02;;;;;;;16.45;8.93;;;;;;;9.11;89.27;99177.47;5025645;28;20033;-73
2020/12/30 09:23:28;;;;;;;18.08;8.93;;;;;;;9.15;89.04;99181.81;5026378;28;20425;-75
2020/12/30 09:25:54;;;;;;;16.73;10.60;;;;;;;9.19;88.66;99176.16;5029339;28;20029;-72
2020/12/30 09:28:21;;;;;;;16.23;11.15;;;;;;;9.22;88.39;99169.69;5027264;28;20025;-73
2020/12/30 09:30:49;;;;;;;18.48;9.25;;;;;;;9.23;88.54;99172.06;5025499;28;20405;-73
2020/12/30 09:33:19;;;;;;;17.05;9.70;;;;;;;9.26;88.70;99165.59;5024380;28;20041;-73
2020/12/30 09:35:46;;;;;;;20.63;12.30;;;;;;;9.28;88.64;99160.38;5026948;28;20028;-72
2020/12/30 09:38:23;;;;;;;23.52;11.02;;;;;;;9.33;88.88;99147.91;5028673;28;20018;-76
2020/12/30 09:40:51;;;;;;;21.17;11.00;;;;;;;9.37;88.38;99154.25;5030609;28;20131;-69
2020/12/30 09:43:18;;;;;;;20.90;11.57;;;;;;;9.41;88.20;99166.19;5036796;28;20025;-73
2020/12/30 09:45:45;;;;;;;22.50;11.38;;;;;;;9.45;88.39;99161.31;5036599;28;20032;-71
2020/12/30 09:48:19;;;;;;;27.65;14.45;;;;;;;9.51;87.70;99158.81;5036623;28;20025;-72
2020/12/30 09:50:45;;;;;;;26.45;15.25;;;;;;;9.53;87.08;99162.78;5036623;28;20029;-74
2020/12/30 09:53:11;;;;;;;23.98;14.63;;;;;;;9.56;87.59;99159.13;5036449;28;20021;-71
2020/12/30 09:55:37;;;;;;;33.83;16.25;;;;;;;9.60;87.42;99162.69;5036810;28;20087;-75
2020/12/30 09:58:04;;;;;;;32.42;17.58;;;;;;;9.67;87.29;99167.38;5036268;28;20025;-75
2020/12/30 10:00:29;;;;;;;41.20;19.10;;;;;;;9.69;87.45;99167.75;5036590;28;20148;-76
2020/12/30 10:02:55;;;;;;;26.50;15.27;;;;;;;9.69;87.28;99161.34;5036760;28;20029;-76
2020/12/30 10:05:21;;;;;;;29.60;14.63;;;;;;;9.69;86.87;99158.53;5036374;28;20436;-76
2020/12/30 10:07:46;;;;;;;34.45;18.10;;;;;;;9.72;87.07;99163.28;5036465;28;20060;-76
2020/12/30 10:10:12;;;;;;;55.97;37.05;;;;;;;9.80;87.29;99171.16;5036146;28;20021;-77
2020/12/30 10:12:40;;;;;;;33.72;21.95;;;;;;;9.88;87.00;99174.66;5036265;28;20096;-80
2020/12/30 10:15:10;;;;;;;43.33;32.72;;;;;;;9.94;86.87;99164.53;5036063;28;20025;-76
2020/12/30 10:17:36;;;;;;;42.40;33.55;;;;;;;9.99;86.50;99161.22;5035305;28;20024;-78
2020/12/30 10:20:04;;;;;;;26.20;19.10;;;;;;;10.00;86.20;99171.22;5036203;28;20021;-76
2020/12/30 10:22:31;;;;;;;27.52;21.23;;;;;;;10.02;85.74;99159.56;5035898;28;20048;-75
2020/12/30 10:24:56;;;;;;;30.70;24.42;;;;;;;10.05;85.61;99165.09;5031316;28;20124;-74
2020/12/30 10:27:22;;;;;;;15.98;11.98;;;;;;;10.06;85.23;99155.47;5020385;28;20425;-74
2020/12/30 10:29:47;;;;;;;21.15;14.68;;;;;;;10.04;84.86;99166.34;5029097;28;20044;-78
2020/12/30 10:32:12;;;;;;;20.17;12.02;;;;;;;10.06;85.61;99165.91;5029417;28;20324;-75
2020/12/30 10:34:38;;;;;;;16.98;11.52;;;;;;;10.06;85.90;99158.28;5029921;28;20025;-74
2020/12/30 10:37:04;;;;;;;16.63;11.30;;;;;;;10.07;86.16;99148.63;5029260;28;20436;-75
2020/12/30 10:39:29;;;;;;;16.83;11.15;;;;;;;10.10;85.68;99161.81;5033154;28;20033;-76
2020/12/30 10:41:55;;;;;;;22.42;13.60;;;;;;;10.14;85.46;99154.13;5029631;28;20033;-71
2020/12/30 10:44:21;;;;;;;16.67;11.25;;;;;;;10.16;85.09;99148.88;5029533;28;20116;-68
2020/12/30 10:46:47;;;;;;;20.48;12.13;;;;;;;10.23;85.34;99147.19;5029136;28;20034;-74
2020/12/30 10:49:12;;;;;;;17.48;11.45;;;;;;;10.37;85.43;99155.31;5030856;28;20025;-75
2020/12/30 10:51:38;;;;;;;15.68;12.02;;;;;;;10.48;85.21;99159.50;5030743;28;20029;-75
2020/12/30 10:54:04;;;;;;;21.67;15.23;;;;;;;10.62;84.54;99152.00;5031287;28;20417;-75
2020/12/30 10:56:29;;;;;;;21.05;13.70;;;;;;;10.65;83.28;99163.16;5023353;28;20294;-75
2020/12/30 10:58:55;;;;;;;15.10;10.57;;;;;;;10.68;82.83;99153.91;5020689;28;20029;-75
2020/12/30 11:01:20;;;;;;;15.02;10.93;;;;;;;10.73;83.01;99158.22;5034461;28;20417;-73
2020/12/30 11:03:45;;;;;;;21.75;12.13;;;;;;;10.77;82.84;99156.09;5030025;28;20026;-71
2020/12/30 11:06:11;;;;;;;16.30;10.15;;;;;;;10.78;82.54;99154.88;5035495;28;20021;-74
2020/12/30 11:08:36;;;;;;;16.38;9.60;;;;;;;10.81;82.54;99154.00;5035139;28;20316;-74
2020/12/30 11:11:06;;;;;;;17.15;9.65;;;;;;;10.80;82.75;99146.81;5035401;28;20044;-75
2020/12/30 11:13:32;;;;;;;14.68;9.00;;;;;;;10.79;82.42;99146.00;5032841;28;20029;-75
2020/12/30 11:15:57;;;;;;;11.48;8.55;;;;;;;10.78;81.93;99138.81;5033517;28;20376;-74
2020/12/30 11:18:23;;;;;;;17.90;9.18;;;;;;;10.77;82.72;99142.06;5035206;28;20036;-74
2020/12/30 11:20:49;;;;;;;13.40;8.15;;;;;;;10.76;82.25;99146.88;5034429;28;20104;-74
2020/12/30 11:23:15;;;;;;;21.98;12.15;;;;;;;10.75;82.49;99145.31;5035096;28;20100;-75
2020/12/30 11:25:41;;;;;;;23.55;15.13;;;;;;;10.75;82.18;99144.50;5033883;28;20033;-76
2020/12/30 11:28:08;;;;;;;32.13;16.38;;;;;;;10.73;82.14;99146.97;5030461;28;20044;-73
2020/12/30 11:30:34;;;;;;;21.23;12.80;;;;;;;10.73;82.40;99142.13;5033234;28;20025;-71
2020/12/30 11:32:59;;;;;;;13.30;9.07;;;;;;;10.70;81.52;99136.59;5035162;28;20075;-78